createdAt,value
2023-03-15T00:02:57.562Z,4.4
2023-03-15T00:07:57.559Z,4.4
2023-03-15T00:12:57.608Z,4.4
2023-03-15T00:17:57.582Z,4.3
2023-03-15T00:22:57.603Z,4.3
2023-03-15T00:27:57.569Z,4.3
2023-03-15T00:32:57.729Z,4.3
2023-03-15T00:37:57.589Z,4.3
2023-03-15T00:42:57.580Z,4.3
2023-03-15T00:47:57.544Z,4.2
2023-03-15T00:52:57.603Z,4.2
2023-03-15T00:57:57.563Z,4.1
2023-03-15T01:02:57.776Z,4.1
2023-03-15T01:07:57.528Z,4.1
2023-03-15T01:12:57.612Z,4.1
2023-03-15T01:17:57.605Z,4.1
2023-03-15T01:22:57.685Z,4.1
2023-03-15T01:27:57.559Z,4.1
2023-03-15T01:32:57.640Z,4
2023-03-15T01:37:57.591Z,4
2023-03-15T01:42:57.548Z,4
2023-03-15T01:47:57.575Z,3.9
2023-03-15T01:52:57.589Z,3.9
2023-03-15T01:57:57.582Z,3.9
2023-03-15T02:02:57.565Z,3.9
2023-03-15T02:07:57.579Z,3.9
2023-03-15T02:12:57.607Z,3.9
2023-03-15T02:17:57.598Z,3.9
2023-03-15T02:22:57.578Z,3.8
2023-03-15T02:27:57.578Z,3.8
2023-03-15T02:32:57.645Z,3.8
2023-03-15T02:37:57.597Z,3.8
2023-03-15T02:42:57.572Z,3.8
2023-03-15T02:47:57.575Z,3.8
2023-03-15T02:52:57.597Z,3.8
2023-03-15T02:57:57.611Z,3.8
2023-03-15T03:02:57.585Z,3.8
2023-03-15T03:07:57.578Z,3.7
2023-03-15T03:12:57.616Z,3.7
2023-03-15T03:17:57.625Z,3.7
2023-03-15T03:22:57.596Z,3.7
2023-03-15T03:27:57.604Z,3.7
2023-03-15T03:32:57.630Z,3.6
2023-03-15T03:37:57.614Z,3.6
2023-03-15T03:42:57.574Z,3.6
2023-03-15T03:47:57.587Z,3.6
2023-03-15T03:52:57.595Z,3.6
2023-03-15T03:57:57.610Z,3.6
2023-03-15T04:02:57.588Z,3.6
2023-03-15T04:07:57.679Z,3.6
2023-03-15T04:12:57.628Z,3.6
2023-03-15T04:17:57.607Z,3.6
2023-03-15T04:22:57.583Z,3.6
2023-03-15T04:27:57.597Z,3.6
2023-03-15T04:32:57.659Z,3.6
2023-03-15T04:37:57.615Z,3.6
2023-03-15T04:42:57.600Z,3.5
2023-03-15T04:47:57.591Z,3.5
2023-03-15T04:52:57.589Z,3.5
2023-03-15T04:57:57.615Z,3.5
2023-03-15T05:02:57.592Z,3.5
2023-03-15T05:07:57.597Z,3.4
2023-03-15T05:12:57.609Z,3.4
2023-03-15T05:17:57.626Z,3.4
2023-03-15T05:22:57.662Z,3.4
2023-03-15T05:27:57.617Z,3.4
2023-03-15T05:32:57.755Z,3.4
2023-03-15T05:37:57.627Z,3.4
2023-03-15T05:42:57.646Z,3.4
2023-03-15T05:47:57.631Z,3.4
2023-03-15T05:52:57.645Z,3.4
2023-03-15T05:57:57.652Z,3.4
2023-03-15T06:02:57.814Z,3.4
2023-03-15T06:07:57.637Z,3.4
2023-03-15T06:12:57.660Z,3.4
2023-03-15T06:17:57.659Z,3.4
2023-03-15T06:22:57.627Z,3.4
2023-03-15T06:27:57.651Z,3.4
2023-03-15T06:32:57.736Z,3.4
2023-03-15T06:37:57.685Z,3.4
2023-03-15T06:42:57.639Z,3.4
2023-03-15T06:47:57.630Z,3.4
2023-03-15T06:52:57.789Z,3.4
2023-03-15T06:57:57.693Z,3.4
2023-03-15T07:02:57.718Z,3.5
2023-03-15T07:07:57.679Z,3.5
2023-03-15T07:12:57.671Z,3.5
2023-03-15T07:17:57.694Z,3.5
2023-03-15T07:22:57.654Z,3.5
2023-03-15T07:27:57.695Z,3.6
2023-03-15T07:32:57.752Z,3.6
2023-03-15T07:37:57.701Z,3.6
2023-03-15T07:42:57.660Z,3.6
2023-03-15T07:47:57.654Z,3.6
2023-03-15T07:52:57.664Z,3.7
2023-03-15T07:57:57.668Z,3.7
2023-03-15T08:02:57.748Z,3.7
2023-03-15T08:07:57.652Z,3.8
2023-03-15T08:12:57.656Z,3.8
2023-03-15T08:17:57.705Z,3.8
2023-03-15T08:22:57.652Z,3.9
2023-03-15T08:27:57.639Z,3.9
2023-03-15T08:32:57.699Z,3.9
2023-03-15T08:37:57.709Z,3.9
2023-03-15T08:42:57.653Z,4
2023-03-15T08:47:57.646Z,4
2023-03-15T08:52:57.651Z,4.1
2023-03-15T08:57:57.706Z,4.1
2023-03-15T09:02:57.652Z,4.1
2023-03-15T09:07:57.694Z,4.1
2023-03-15T09:12:57.660Z,4.1
2023-03-15T09:17:57.671Z,4.2
2023-03-15T09:22:57.715Z,4.2
2023-03-15T09:27:57.654Z,4.3
2023-03-15T09:32:57.713Z,4.3
2023-03-15T09:37:57.695Z,4.3
2023-03-15T09:42:57.681Z,4.4
2023-03-15T09:47:57.652Z,4.4
2023-03-15T09:52:57.672Z,4.4
2023-03-15T09:57:57.683Z,4.4
2023-03-15T10:02:57.667Z,4.4
2023-03-15T10:07:57.675Z,4.5
2023-03-15T10:12:57.756Z,4.5
2023-03-15T10:17:57.720Z,4.6
2023-03-15T10:22:57.705Z,4.6
2023-03-15T10:27:57.705Z,4.6
2023-03-15T10:32:57.773Z,4.6
2023-03-15T10:37:57.744Z,4.7
2023-03-15T10:42:57.860Z,4.8
2023-03-15T10:48:00.533Z,4.8
2023-03-15T10:52:57.723Z,4.9
2023-03-15T10:57:57.749Z,5
2023-03-15T11:02:57.717Z,5.1
2023-03-15T11:07:57.726Z,5.1
2023-03-15T11:12:57.728Z,5.2
2023-03-15T11:17:57.739Z,5.3
2023-03-15T11:22:57.704Z,5.3
2023-03-15T11:27:57.696Z,5.4
2023-03-15T11:32:57.763Z,5.4
2023-03-15T11:38:03.315Z,5.5
2023-03-15T11:42:57.757Z,5.6
2023-03-15T11:47:57.708Z,5.7
2023-03-15T11:52:57.721Z,5.8
2023-03-15T11:57:57.732Z,5.9
2023-03-15T12:02:57.881Z,5.9
2023-03-15T12:07:57.693Z,6.1
2023-03-15T12:12:57.722Z,6.2
2023-03-15T12:17:57.721Z,6.3
2023-03-15T12:22:58.345Z,6.4
2023-03-15T12:27:57.707Z,6.5
2023-03-15T12:32:57.743Z,6.6
2023-03-15T12:37:57.721Z,6.8
2023-03-15T12:42:57.683Z,6.9
2023-03-15T12:47:57.689Z,7.1
2023-03-15T12:52:57.691Z,7.2
2023-03-15T12:57:57.750Z,7.3
2023-03-15T13:02:58.286Z,7.4
2023-03-15T13:07:57.701Z,7.5
2023-03-15T13:12:57.712Z,7.6
2023-03-15T13:17:57.713Z,7.6
2023-03-15T13:22:57.689Z,7.7
2023-03-15T13:27:57.682Z,7.8
2023-03-15T13:32:57.888Z,7.9
2023-03-15T13:37:57.738Z,8
2023-03-15T13:42:57.796Z,8.1
2023-03-15T13:47:57.705Z,8.2
2023-03-15T13:52:57.707Z,8.2
2023-03-15T13:57:57.735Z,8.2
2023-03-15T14:02:57.754Z,8.2
2023-03-15T14:07:57.704Z,8.2
2023-03-15T14:12:57.721Z,8.3
2023-03-15T14:17:57.750Z,8.4
2023-03-15T14:22:57.695Z,8.5
2023-03-15T14:27:57.736Z,8.6
2023-03-15T14:32:57.807Z,8.8
2023-03-15T14:37:57.724Z,8.9
2023-03-15T14:42:57.802Z,9.1
2023-03-15T14:47:58.057Z,9.3
2023-03-15T14:52:57.753Z,9.4
2023-03-15T14:57:57.765Z,9.6
2023-03-15T15:02:57.719Z,9.8
2023-03-15T15:07:57.725Z,9.9
2023-03-15T15:13:05.817Z,10
2023-03-15T15:17:57.750Z,10.1
2023-03-15T15:22:57.732Z,10.3
2023-03-15T15:27:57.712Z,10.3
2023-03-15T15:32:57.767Z,10.4
2023-03-15T15:37:57.777Z,10.4
2023-03-15T15:42:57.721Z,10.4
2023-03-15T15:47:57.733Z,10.4
2023-03-15T15:52:57.724Z,10.4
2023-03-15T15:57:57.745Z,10.4
2023-03-15T16:02:57.759Z,10.4
2023-03-15T16:07:57.719Z,10.3
2023-03-15T16:12:57.746Z,10.3
2023-03-15T16:17:57.779Z,10.2
2023-03-15T16:22:57.738Z,10.1
2023-03-15T16:27:57.746Z,9.9
2023-03-15T16:32:57.850Z,9.8
2023-03-15T16:37:57.752Z,9.7
2023-03-15T16:42:57.867Z,9.5
2023-03-15T16:47:57.732Z,9.3
2023-03-15T16:52:57.728Z,9.2
2023-03-15T16:57:57.775Z,9.1
2023-03-15T17:02:57.733Z,8.9
2023-03-15T17:07:57.717Z,8.8
2023-03-15T17:12:57.736Z,8.6
2023-03-15T17:17:57.992Z,8.5
2023-03-15T17:22:57.730Z,8.4
2023-03-15T17:27:57.739Z,8.3
2023-03-15T17:32:57.916Z,8.1
2023-03-15T17:37:57.748Z,7.9
2023-03-15T17:42:57.723Z,7.8
2023-03-15T17:47:57.734Z,7.7
2023-03-15T17:52:57.744Z,7.6
2023-03-15T17:57:57.743Z,7.5
2023-03-15T18:02:57.721Z,7.4
2023-03-15T18:07:59.722Z,7.3
2023-03-15T18:12:57.772Z,7.1
2023-03-15T18:17:57.754Z,7.1
2023-03-15T18:22:57.992Z,6.9
2023-03-15T18:27:57.767Z,6.8
2023-03-15T18:32:57.809Z,6.8
2023-03-15T18:37:57.930Z,6.6
2023-03-15T18:42:57.846Z,6.5
2023-03-15T18:47:57.765Z,6.4
2023-03-15T18:52:57.742Z,6.3
2023-03-15T18:57:57.786Z,6.3
2023-03-15T19:02:57.753Z,6.1
2023-03-15T19:07:57.816Z,6.1
2023-03-15T19:12:57.740Z,5.9
2023-03-15T19:17:57.765Z,5.9
2023-03-15T19:22:57.727Z,5.8
2023-03-15T19:27:57.818Z,5.8
2023-03-15T19:32:57.806Z,5.7
2023-03-15T19:37:57.753Z,5.6
2023-03-15T19:42:57.745Z,5.5
2023-03-15T19:47:57.764Z,5.4
2023-03-15T19:52:57.764Z,5.4
2023-03-15T19:57:57.764Z,5.3
2023-03-15T20:02:57.780Z,5.3
2023-03-15T20:07:57.735Z,5.2
2023-03-15T20:12:57.893Z,5.1
2023-03-15T20:17:58.085Z,5.1
2023-03-15T20:22:57.846Z,5
2023-03-15T20:27:57.795Z,5
2023-03-15T20:32:57.805Z,4.9
2023-03-15T20:37:57.785Z,4.9
2023-03-15T20:42:57.768Z,4.9
2023-03-15T20:47:57.785Z,4.8
2023-03-15T20:52:57.783Z,4.8
2023-03-15T20:57:57.787Z,4.8
2023-03-15T21:02:57.756Z,4.7
2023-03-15T21:07:57.738Z,4.7
2023-03-15T21:12:57.889Z,4.6
2023-03-15T21:17:57.801Z,4.6
2023-03-15T21:22:57.767Z,4.6
2023-03-15T21:27:57.757Z,4.6
2023-03-15T21:32:57.863Z,4.5
2023-03-15T21:37:57.786Z,4.5
2023-03-15T21:42:57.752Z,4.4
2023-03-15T21:47:57.741Z,4.4
2023-03-15T21:52:57.757Z,4.4
2023-03-15T21:57:57.772Z,4.4
2023-03-15T22:02:57.742Z,4.4
2023-03-15T22:07:57.746Z,4.3
2023-03-15T22:12:57.786Z,4.3
2023-03-15T22:17:57.777Z,4.3
2023-03-15T22:22:57.739Z,4.3
2023-03-15T22:27:57.756Z,4.3
2023-03-15T22:32:57.821Z,4.2
2023-03-15T22:37:57.773Z,4.2
2023-03-15T22:42:57.744Z,4.2
2023-03-15T22:47:57.741Z,4.1
2023-03-15T22:52:57.749Z,4.1
2023-03-15T22:57:57.764Z,4.1
2023-03-15T23:02:57.792Z,4.1
2023-03-15T23:07:57.756Z,4
2023-03-15T23:12:57.793Z,4
2023-03-15T23:17:57.788Z,4
2023-03-15T23:22:57.783Z,3.9
2023-03-15T23:27:57.768Z,3.9
2023-03-15T23:32:57.891Z,3.9
2023-03-15T23:37:57.781Z,3.9
2023-03-15T23:42:57.766Z,3.8
2023-03-15T23:47:57.765Z,3.8
2023-03-15T23:52:57.770Z,3.8
2023-03-15T23:57:57.792Z,3.8
